Time;durP1;ratioP1;P1;durP2;ratioP2;P2;SDS_P1;SDS_P2;PMS_P1;PMS_P2;Temp;Humidity;BMP_temperature;BMP_pressure;BME280_temperature;BME280_humidity;BME280_pressure;Samples;Min_cycle;Max_cycle;Signal;HPM_P1;HPM_P2
2023/01/15 00:01:01;;;;;;;4.50;3.67;;;6.20;99.90;;;;;;5023309;28;20204;-74
2023/01/15 00:03:27;;;;;;;4.85;4.18;;;6.20;99.90;;;;;;5014580;28;20197;-74
2023/01/15 00:05:53;;;;;;;6.80;4.55;;;6.00;99.90;;;;;;5019090;28;20578;-74
2023/01/15 00:08:19;;;;;;;6.13;4.50;;;6.10;99.90;;;;;;5025532;28;20179;-73
2023/01/15 00:10:44;;;;;;;4.32;3.60;;;6.10;99.90;;;;;;5023321;28;20590;-74
2023/01/15 00:13:10;;;;;;;4.60;3.85;;;6.00;99.90;;;;;;5025109;28;20282;-74
2023/01/15 00:15:35;;;;;;;4.20;3.80;;;6.10;99.90;;;;;;5020054;28;20185;-74
2023/01/15 00:18:02;;;;;;;4.28;3.85;;;6.10;99.90;;;;;;5021361;28;20263;-74
2023/01/15 00:20:27;;;;;;;5.60;4.63;;;6.10;99.90;;;;;;5024312;28;20196;-75
2023/01/15 00:22:53;;;;;;;5.65;4.28;;;6.20;99.90;;;;;;5020357;28;20209;-73
2023/01/15 00:28:23;;;;;;;4.85;3.88;;;6.10;99.90;;;;;;5010559;28;20291;-74
2023/01/15 00:30:49;;;;;;;4.15;3.75;;;6.10;99.90;;;;;;5020329;28;20734;-75
2023/01/15 00:33:14;;;;;;;3.63;3.33;;;6.10;99.90;;;;;;5019537;28;20216;-74
2023/01/15 00:35:40;;;;;;;7.93;4.38;;;6.00;99.90;;;;;;5023311;28;20185;-73
2023/01/15 00:38:05;;;;;;;6.50;4.15;;;6.20;99.90;;;;;;5019291;28;20183;-74
2023/01/15 00:40:31;;;;;;;4.20;3.80;;;6.20;99.90;;;;;;5015727;28;20531;-74
2023/01/15 00:42:56;;;;;;;5.13;4.20;;;6.30;99.90;;;;;;5025408;28;20235;-74
2023/01/15 00:45:22;;;;;;;7.07;4.38;;;6.30;99.90;;;;;;5016087;28;20577;-74
2023/01/15 00:47:49;;;;;;;5.78;4.10;;;6.20;99.90;;;;;;5016056;28;20215;-75
2023/01/15 00:50:15;;;;;;;6.38;3.75;;;6.20;99.90;;;;;;5014885;28;20174;-74
2023/01/15 00:52:41;;;;;;;4.45;3.50;;;6.10;99.90;;;;;;5016656;28;20671;-74
2023/01/15 00:55:08;;;;;;;3.83;3.42;;;6.20;99.90;;;;;;5021248;28;20181;-74
2023/01/15 00:57:33;;;;;;;5.15;3.65;;;6.20;99.90;;;;;;5019982;28;20217;-74
2023/01/15 00:59:59;;;;;;;6.10;3.85;;;6.20;99.90;;;;;;5019210;28;20178;-75
2023/01/15 01:02:25;;;;;;;5.13;3.58;;;6.30;99.90;;;;;;5014869;28;20223;-74
2023/01/15 01:04:50;;;;;;;3.90;3.38;;;6.20;99.90;;;;;;5022130;28;20188;-74
2023/01/15 01:07:17;;;;;;;5.00;3.30;;;6.10;99.90;;;;;;5025159;28;20180;-74
2023/01/15 01:09:43;;;;;;;4.82;3.63;;;6.10;99.90;;;;;;5023240;28;20174;-73
2023/01/15 01:12:08;;;;;;;3.50;3.20;;;6.10;99.90;;;;;;5021509;28;20318;-73
2023/01/15 01:14:35;;;;;;;6.32;2.70;;;6.10;99.90;;;;;;5027913;28;20213;-73
2023/01/15 01:17:00;;;;;;;5.22;3.05;;;6.10;99.90;;;;;;5025966;28;20204;-73
2023/01/15 01:19:26;;;;;;;3.53;2.70;;;6.20;99.90;;;;;;5019003;28;20181;-73
2023/01/15 01:21:52;;;;;;;3.58;2.92;;;6.20;99.90;;;;;;5020797;28;20204;-74
2023/01/15 01:24:22;;;;;;;3.20;2.80;;;6.10;99.90;;;;;;5029499;28;20192;-73
2023/01/15 01:26:49;;;;;;;3.22;2.55;;;6.10;99.90;;;;;;5030919;28;20168;-73
2023/01/15 01:29:18;;;;;;;2.92;2.72;;;6.10;99.90;;;;;;5029798;28;20255;-73
2023/01/15 01:31:44;;;;;;;4.47;2.55;;;6.20;99.90;;;;;;5017117;28;20181;-73
2023/01/15 01:34:11;;;;;;;5.20;2.65;;;6.20;99.90;;;;;;5028480;28;20287;-73
2023/01/15 01:36:38;;;;;;;3.72;2.70;;;6.20;99.90;;;;;;5024982;28;20284;-73
2023/01/15 01:39:05;;;;;;;2.50;2.40;;;6.20;99.90;;;;;;5011051;28;20533;-74
2023/01/15 01:41:31;;;;;;;2.33;2.20;;;6.20;99.90;;;;;;5019785;28;20201;-74
2023/01/15 01:44:05;;;;;;;2.80;2.60;;;6.20;99.90;;;;;;5011368;28;20280;-74
2023/01/15 01:46:33;;;;;;;2.67;2.47;;;6.20;99.90;;;;;;5025678;28;20183;-74
2023/01/15 01:49:03;;;;;;;2.95;2.67;;;6.20;99.90;;;;;;5018184;28;20615;-74
2023/01/15 01:51:34;;;;;;;3.15;2.65;;;6.10;99.90;;;;;;5015298;28;20551;-74
2023/01/15 01:54:01;;;;;;;2.70;2.50;;;6.20;99.90;;;;;;5021411;28;20197;-73
2023/01/15 01:56:26;;;;;;;3.08;2.78;;;6.30;99.90;;;;;;5013211;28;20611;-73
2023/01/15 01:58:54;;;;;;;2.95;2.50;;;6.20;99.90;;;;;;5027459;28;20209;-73
2023/01/15 02:01:23;;;;;;;2.63;2.42;;;6.20;99.90;;;;;;5018827;28;20684;-73
2023/01/15 02:03:49;;;;;;;3.45;2.78;;;6.20;99.90;;;;;;5016979;28;20200;-73
2023/01/15 02:06:15;;;;;;;2.55;2.35;;;6.20;99.90;;;;;;5025005;28;20628;-73
2023/01/15 02:08:41;;;;;;;3.10;2.90;;;6.10;99.90;;;;;;5026839;28;20181;-73
2023/01/15 02:11:15;;;;;;;2.90;2.70;;;6.00;99.90;;;;;;5025377;28;20186;-73
2023/01/15 02:14:03;;;;;;;3.63;2.72;;;6.00;99.90;;;;;;5023183;28;20718;-73
2023/01/15 02:16:40;;;;;;;3.10;2.90;;;6.00;99.90;;;;;;5018552;28;20482;-73
2023/01/15 02:19:34;;;;;;;3.53;3.22;;;6.00;99.90;;;;;;5013325;28;20213;-73
2023/01/15 02:22:28;;;;;;;4.68;2.83;;;5.90;99.90;;;;;;5016128;28;20286;-73
2023/01/15 02:24:59;;;;;;;2.90;2.70;;;5.90;99.90;;;;;;5013414;28;20190;-74
2023/01/15 02:27:25;;;;;;;2.70;2.60;;;5.90;99.90;;;;;;5012335;28;20231;-74
2023/01/15 02:30:21;;;;;;;2.95;2.67;;;5.80;99.90;;;;;;5018893;28;20188;-74
2023/01/15 02:33:03;;;;;;;2.72;2.50;;;5.80;99.90;;;;;;5027370;28;20196;-74
2023/01/15 02:35:40;;;;;;;2.95;2.75;;;5.80;99.90;;;;;;5028458;28;20187;-74
2023/01/15 02:38:10;;;;;;;2.97;2.22;;;5.80;99.90;;;;;;5030704;28;20180;-74
2023/01/15 02:40:38;;;;;;;2.85;2.55;;;5.80;99.90;;;;;;5026481;28;20196;-75
2023/01/15 02:43:05;;;;;;;3.75;2.85;;;5.80;99.90;;;;;;5019412;28;20212;-75
2023/01/15 02:45:35;;;;;;;2.90;2.70;;;5.70;99.90;;;;;;5025788;28;20181;-74
2023/01/15 02:48:07;;;;;;;2.92;2.70;;;5.80;99.90;;;;;;5019756;28;20188;-74
2023/01/15 02:50:37;;;;;;;2.80;2.60;;;5.80;99.90;;;;;;5030333;28;20672;-74
2023/01/15 02:53:06;;;;;;;2.88;2.67;;;5.80;99.90;;;;;;5028390;28;20761;-74
2023/01/15 02:55:37;;;;;;;4.32;2.80;;;5.90;99.90;;;;;;5028575;28;20173;-74
2023/01/15 02:58:08;;;;;;;3.95;2.65;;;5.90;99.90;;;;;;5033876;28;20175;-74
2023/01/15 03:00:37;;;;;;;3.42;2.50;;;5.90;99.90;;;;;;5027250;28;20289;-74
2023/01/15 03:03:12;;;;;;;2.72;2.53;;;5.90;99.90;;;;;;5027405;28;20197;-74
2023/01/15 03:05:42;;;;;;;2.92;2.70;;;5.80;99.90;;;;;;5031304;28;20200;-74
2023/01/15 03:08:09;;;;;;;2.88;2.67;;;5.80;99.90;;;;;;5025383;28;20179;-74
2023/01/15 03:10:48;;;;;;;3.30;3.10;;;5.80;99.90;;;;;;5029251;28;20645;-74
2023/01/15 03:13:23;;;;;;;2.88;2.67;;;5.70;99.90;;;;;;5031068;28;20207;-74
2023/01/15 03:19:25;;;;;;;2.50;2.40;;;5.80;99.90;;;;;;5025332;28;20193;-74
2023/01/15 03:22:01;;;;;;;2.50;2.30;;;5.70;99.90;;;;;;5014235;28;20207;-74
2023/01/15 03:24:41;;;;;;;2.78;2.50;;;5.80;99.90;;;;;;5026203;28;20518;-75
2023/01/15 03:27:07;;;;;;;2.65;2.45;;;5.80;99.90;;;;;;5027813;28;20326;-74
2023/01/15 03:29:38;;;;;;;2.47;2.30;;;5.80;99.90;;;;;;5023526;28;20196;-74
2023/01/15 03:32:04;;;;;;;2.70;2.50;;;5.80;99.90;;;;;;5017881;28;20268;-74
2023/01/15 03:34:41;;;;;;;2.97;2.70;;;5.80;99.90;;;;;;5032800;28;20189;-74
2023/01/15 03:37:07;;;;;;;2.83;2.63;;;5.90;99.90;;;;;;5016601;28;20259;-74
2023/01/15 03:39:33;;;;;;;2.55;2.30;;;5.90;99.90;;;;;;5024937;28;20716;-74
2023/01/15 03:42:11;;;;;;;2.80;2.60;;;5.80;99.90;;;;;;5016847;28;20287;-74
2023/01/15 03:44:36;;;;;;;2.50;2.30;;;5.80;99.90;;;;;;5018621;28;20660;-74
2023/01/15 03:47:28;;;;;;;2.83;2.58;;;5.80;99.90;;;;;;5026661;28;20227;-74
2023/01/15 03:50:12;;;;;;;2.47;2.28;;;5.80;99.90;;;;;;5011341;28;20211;-75
2023/01/15 03:52:53;;;;;;;2.72;2.53;;;5.80;99.90;;;;;;5022186;28;20201;-75
2023/01/15 03:55:52;;;;;;;2.65;2.42;;;5.80;99.90;;;;;;5029366;28;20173;-74
2023/01/15 03:58:37;;;;;;;2.33;2.22;;;5.80;99.90;;;;;;5029436;28;20566;-74
2023/01/15 04:01:04;;;;;;;2.65;2.45;;;5.80;99.90;;;;;;5007795;28;20213;-74
2023/01/15 04:03:32;;;;;;;2.60;2.40;;;5.80;99.90;;;;;;5021988;28;20201;-73
2023/01/15 04:06:00;;;;;;;2.13;2.03;;;5.70;99.90;;;;;;5025631;28;20204;-73
2023/01/15 04:08:31;;;;;;;2.80;2.55;;;5.70;99.90;;;;;;5016915;28;20740;-73
2023/01/15 04:10:59;;;;;;;2.22;2.13;;;5.80;99.90;;;;;;5027609;28;20189;-73
2023/01/15 04:13:25;;;;;;;2.38;2.08;;;5.70;99.90;;;;;;5020449;28;20198;-74
2023/01/15 04:15:52;;;;;;;2.83;2.63;;;5.70;99.90;;;;;;5023262;28;20180;-73
2023/01/15 04:18:17;;;;;;;2.47;2.17;;;5.70;99.90;;;;;;5024373;28;20184;-73
2023/01/15 04:20:44;;;;;;;2.83;2.55;;;5.70;99.90;;;;;;5019898;28;20204;-73
2023/01/15 04:23:10;;;;;;;2.78;2.38;;;5.60;99.90;;;;;;5019248;28;20343;-73
2023/01/15 04:25:36;;;;;;;2.38;2.28;;;5.50;99.90;;;;;;5019764;28;20197;-73
2023/01/15 04:28:02;;;;;;;3.10;2.67;;;5.60;99.90;;;;;;5019558;28;20188;-74
2023/01/15 04:30:28;;;;;;;2.80;2.60;;;5.70;99.90;;;;;;5006496;28;20182;-73
2023/01/15 04:32:53;;;;;;;4.13;2.85;;;5.70;99.90;;;;;;5021601;28;20838;-74
2023/01/15 04:35:19;;;;;;;2.80;2.40;;;5.70;99.90;;;;;;5021204;28;20185;-74
2023/01/15 04:37:45;;;;;;;3.20;2.90;;;5.60;99.90;;;;;;5019937;28;20547;-74
2023/01/15 04:44:05;;;;;;;2.60;2.40;;;5.60;99.90;;;;;;5014947;28;20626;-74
2023/01/15 04:45:44;;;;;;;3.55;2.63;;;5.60;99.90;;;;;;5032725;28;20191;-73
2023/01/15 04:48:11;;;;;;;2.85;2.65;;;5.60;99.90;;;;;;5024403;28;20272;-74
2023/01/15 04:50:37;;;;;;;2.65;2.42;;;5.50;99.90;;;;;;5025510;28;20188;-75
2023/01/15 04:53:02;;;;;;;3.17;2.88;;;5.50;99.90;;;;;;5023281;28;20203;-75
2023/01/15 04:55:29;;;;;;;2.65;2.47;;;5.50;99.90;;;;;;5020134;28;20268;-74
2023/01/15 04:57:55;;;;;;;3.13;2.83;;;5.40;99.90;;;;;;5021857;28;20173;-74
2023/01/15 05:00:22;;;;;;;2.63;2.50;;;5.40;99.90;;;;;;5028146;28;20844;-74
2023/01/15 05:02:48;;;;;;;2.92;2.72;;;5.50;99.90;;;;;;5025216;28;20219;-74
2023/01/15 05:05:14;;;;;;;2.55;2.35;;;5.50;99.90;;;;;;5022711;28;20231;-74
2023/01/15 05:07:40;;;;;;;2.97;2.70;;;5.40;99.90;;;;;;5017602;28;20720;-73
2023/01/15 05:10:06;;;;;;;2.95;2.75;;;5.40;99.90;;;;;;5011163;28;20265;-74
2023/01/15 05:12:31;;;;;;;4.45;3.08;;;5.40;99.90;;;;;;5023625;28;20200;-74
2023/01/15 05:14:57;;;;;;;3.55;3.25;;;5.40;99.90;;;;;;5017965;28;20188;-74
2023/01/15 05:17:22;;;;;;;3.10;2.80;;;5.30;99.90;;;;;;5020802;28;20176;-73
2023/01/15 05:19:48;;;;;;;2.95;2.72;;;5.20;99.90;;;;;;5023003;28;20183;-74
2023/01/15 05:22:13;;;;;;;3.10;2.88;;;5.30;99.90;;;;;;5022075;28;20266;-74
2023/01/15 05:24:39;;;;;;;3.22;3.03;;;5.40;99.90;;;;;;5020798;28;20187;-74
2023/01/15 05:27:05;;;;;;;2.63;2.47;;;5.40;99.90;;;;;;5013529;28;20259;-74
2023/01/15 05:29:30;;;;;;;3.47;3.17;;;5.30;99.90;;;;;;5017244;28;20181;-74
2023/01/15 05:31:56;;;;;;;3.95;3.05;;;5.30;99.90;;;;;;5027035;28;20180;-74
2023/01/15 05:34:22;;;;;;;4.40;2.92;;;5.40;99.90;;;;;;5021008;28;20204;-73
2023/01/15 05:36:48;;;;;;;3.95;3.08;;;5.40;99.90;;;;;;5022801;28;20208;-74
2023/01/15 05:39:13;;;;;;;5.32;3.22;;;5.40;99.90;;;;;;5022940;28;20180;-74
2023/01/15 05:41:48;;;;;;;2.85;2.75;;;5.40;99.90;;;;;;5015266;28;20204;-74
2023/01/15 05:44:25;;;;;;;3.28;2.70;;;5.40;99.90;;;;;;5004487;28;20211;-74
2023/01/15 05:46:53;;;;;;;3.97;3.50;;;5.30;99.90;;;;;;5010083;28;20180;-74
2023/01/15 05:49:21;;;;;;;3.10;2.90;;;5.30;99.90;;;;;;5009418;28;20200;-73
2023/01/15 05:51:48;;;;;;;2.72;2.53;;;5.30;99.90;;;;;;5027642;28;20176;-74
2023/01/15 05:54:19;;;;;;;3.13;2.92;;;5.40;99.90;;;;;;5018262;28;20251;-74
2023/01/15 05:56:45;;;;;;;3.72;3.10;;;5.30;99.90;;;;;;5015720;28;20268;-73
2023/01/15 05:59:11;;;;;;;3.90;3.42;;;5.30;99.90;;;;;;5011228;28;20276;-74
2023/01/15 06:01:37;;;;;;;3.08;2.88;;;5.20;99.90;;;;;;5022397;28;20240;-73
2023/01/15 06:04:05;;;;;;;2.90;2.70;;;5.20;99.90;;;;;;5015051;28;20200;-73
2023/01/15 06:06:31;;;;;;;3.15;2.85;;;5.30;99.90;;;;;;5020492;28;20279;-74
2023/01/15 06:08:57;;;;;;;2.85;2.65;;;5.30;99.90;;;;;;5013596;28;20177;-74
2023/01/15 06:11:23;;;;;;;4.03;2.83;;;5.40;99.90;;;;;;5008597;28;20247;-75
2023/01/15 06:13:49;;;;;;;5.43;2.80;;;5.40;99.90;;;;;;5010240;28;20203;-74
2023/01/15 06:16:15;;;;;;;3.40;2.70;;;5.30;99.90;;;;;;5010377;28;20257;-75
2023/01/15 06:18:41;;;;;;;3.00;2.60;;;5.30;99.90;;;;;;5010154;28;20243;-74
2023/01/15 06:21:09;;;;;;;3.78;2.95;;;5.40;99.90;;;;;;5006578;28;20316;-74
2023/01/15 06:23:36;;;;;;;2.90;2.70;;;5.40;99.90;;;;;;5007714;28;20207;-71
2023/01/15 06:26:04;;;;;;;2.97;2.78;;;5.40;99.90;;;;;;5006695;28;20219;-73
2023/01/15 06:28:30;;;;;;;2.70;2.50;;;5.40;99.90;;;;;;5003839;28;20178;-74
2023/01/15 06:30:56;;;;;;;2.72;2.53;;;5.50;99.90;;;;;;5003857;28;20243;-73
2023/01/15 06:33:22;;;;;;;2.95;2.75;;;5.50;99.90;;;;;;5012301;28;20698;-74
2023/01/15 06:35:48;;;;;;;2.60;2.40;;;5.40;99.90;;;;;;5007271;28;20180;-74
2023/01/15 06:38:13;;;;;;;2.50;2.30;;;5.50;99.90;;;;;;5013862;28;20173;-74
2023/01/15 06:40:39;;;;;;;2.83;2.30;;;5.50;99.90;;;;;;5009040;28;20182;-78
2023/01/15 06:48:33;;;;;;;3.40;2.47;;;5.70;99.90;;;;;;5021273;28;20230;-78
2023/01/15 06:50:59;;;;;;;2.70;2.50;;;5.80;99.90;;;;;;5022106;28;20189;-78
2023/01/15 06:53:25;;;;;;;2.97;2.60;;;5.70;99.90;;;;;;5026352;28;20205;-78
2023/01/15 06:55:50;;;;;;;3.42;2.60;;;5.70;99.90;;;;;;5023395;28;20192;-75
2023/01/15 06:58:16;;;;;;;3.60;2.63;;;5.70;99.90;;;;;;5016914;28;20264;-76
2023/01/15 07:00:43;;;;;;;2.80;2.60;;;5.70;99.90;;;;;;5026157;28;20235;-77
2023/01/15 07:03:12;;;;;;;2.80;2.30;;;5.80;99.90;;;;;;5011979;28;20205;-76
2023/01/15 07:05:38;;;;;;;2.53;2.38;;;5.80;99.90;;;;;;5036804;28;20189;-76
2023/01/15 07:08:04;;;;;;;4.05;2.10;;;5.90;99.90;;;;;;5018611;28;20180;-76
2023/01/15 07:10:30;;;;;;;2.50;2.30;;;5.90;99.90;;;;;;5026634;28;20176;-77
2023/01/15 07:12:55;;;;;;;2.58;2.47;;;5.90;99.90;;;;;;5017630;28;20255;-75
2023/01/15 07:15:21;;;;;;;2.00;1.90;;;5.90;99.90;;;;;;5014635;28;20186;-74
2023/01/15 07:17:46;;;;;;;2.58;2.38;;;6.00;99.90;;;;;;5031840;28;20189;-75
2023/01/15 07:20:12;;;;;;;2.83;2.35;;;6.00;99.90;;;;;;5022781;28;20189;-75
2023/01/15 07:22:38;;;;;;;2.30;2.15;;;6.00;99.90;;;;;;5014935;28;20655;-74
2023/01/15 07:25:04;;;;;;;2.30;2.10;;;6.00;99.90;;;;;;5012866;28;20703;-74
2023/01/15 07:27:29;;;;;;;2.17;2.00;;;6.00;99.90;;;;;;5013935;28;20181;-73
2023/01/15 07:29:55;;;;;;;3.03;2.05;;;6.00;99.90;;;;;;5008548;28;20682;-75
2023/01/15 07:32:20;;;;;;;2.50;2.30;;;6.00;99.90;;;;;;5008648;28;20205;-75
2023/01/15 07:34:46;;;;;;;2.22;2.05;;;6.00;99.90;;;;;;5015156;28;20180;-75
2023/01/15 07:37:12;;;;;;;2.42;2.22;;;6.00;99.90;;;;;;5007479;28;20727;-74
2023/01/15 07:39:37;;;;;;;2.83;2.63;;;6.10;99.90;;;;;;5014813;28;20181;-75
2023/01/15 07:50:21;;;;;;;3.45;1.90;;;6.10;99.90;;;;;;5028789;28;20219;-77
2023/01/15 07:52:47;;;;;;;2.13;1.92;;;6.10;99.90;;;;;;5018045;28;20204;-76
2023/01/15 07:55:14;;;;;;;2.13;2.03;;;6.30;99.90;;;;;;5015569;28;20239;-78
2023/01/15 07:57:42;;;;;;;1.90;1.80;;;6.30;99.90;;;;;;5014510;28;20606;-80
2023/01/15 08:00:14;;;;;;;2.08;1.98;;;6.40;99.90;;;;;;5016321;28;21530;-76
2023/01/15 08:02:40;;;;;;;2.58;2.38;;;6.50;99.90;;;;;;5010886;28;20221;-76
2023/01/15 08:05:07;;;;;;;3.83;1.92;;;6.50;99.90;;;;;;4997734;28;20668;-76
2023/01/15 08:07:40;;;;;;;2.80;2.47;;;6.60;99.90;;;;;;5021845;28;20679;-77
2023/01/15 08:10:07;;;;;;;4.05;2.42;;;6.70;99.90;;;;;;5028982;28;20252;-76
2023/01/15 08:15:17;;;;;;;2.35;2.15;;;6.60;99.90;;;;;;5007756;28;20197;-77
2023/01/15 08:17:47;;;;;;;2.58;2.38;;;6.70;99.90;;;;;;5010678;28;20185;-76
2023/01/15 08:20:15;;;;;;;2.33;2.20;;;6.70;99.90;;;;;;5018340;28;20199;-78
2023/01/15 08:22:41;;;;;;;2.17;2.08;;;6.90;99.90;;;;;;5009585;28;20272;-79
2023/01/15 08:25:09;;;;;;;2.22;1.98;;;6.90;99.90;;;;;;5019270;28;20732;-77
2023/01/15 08:27:35;;;;;;;2.50;2.30;;;6.90;99.90;;;;;;5007184;28;20182;-78
2023/01/15 08:30:02;;;;;;;1.88;1.77;;;7.00;99.90;;;;;;5015804;28;20247;-79
2023/01/15 08:32:28;;;;;;;2.28;1.90;;;7.00;99.90;;;;;;5019974;28;20197;-77
2023/01/15 08:34:53;;;;;;;2.35;2.15;;;7.10;99.90;;;;;;5014707;28;20553;-76
2023/01/15 08:37:19;;;;;;;2.33;2.13;;;7.20;99.90;;;;;;5016360;28;20176;-79
2023/01/15 08:39:45;;;;;;;5.57;2.25;;;7.20;99.90;;;;;;5044647;28;20180;-79
2023/01/15 08:42:10;;;;;;;2.55;2.00;;;7.20;99.90;;;;;;5031929;28;20215;-79
2023/01/15 08:44:36;;;;;;;2.55;2.35;;;7.30;99.90;;;;;;5025052;28;20714;-80
2023/01/15 08:47:02;;;;;;;2.20;2.10;;;7.30;99.90;;;;;;5022116;28;20188;-80
2023/01/15 08:49:27;;;;;;;3.00;1.98;;;7.30;99.90;;;;;;5020845;28;20181;-79
2023/01/15 08:51:53;;;;;;;2.67;2.47;;;7.40;99.90;;;;;;5011617;28;20185;-79
2023/01/15 08:54:20;;;;;;;2.30;2.10;;;7.50;99.90;;;;;;5011885;28;20257;-78
2023/01/15 08:56:46;;;;;;;2.30;2.05;;;7.50;99.90;;;;;;5014161;28;20585;-79
2023/01/15 08:59:11;;;;;;;2.00;1.90;;;7.30;99.90;;;;;;5026262;28;20184;-79
2023/01/15 09:01:37;;;;;;;2.78;2.58;;;7.40;99.90;;;;;;5024434;28;20208;-80
2023/01/15 09:04:05;;;;;;;3.22;2.67;;;7.50;99.90;;;;;;5014490;28;20201;-79
2023/01/15 09:06:31;;;;;;;2.83;2.63;;;7.40;99.90;;;;;;5014785;28;20193;-80
2023/01/15 09:08:58;;;;;;;2.25;2.15;;;7.40;99.90;;;;;;5023843;28;20184;-81
2023/01/15 09:11:24;;;;;;;0.80;0.80;;;7.50;99.90;;;;;;5015961;28;20273;-79
2023/01/15 09:13:50;;;;;;;0.88;0.88;;;7.80;99.90;;;;;;5036531;28;20312;-80
2023/01/15 09:16:17;;;;;;;2.85;0.40;;;8.30;99.90;;;;;;5019339;28;20655;-80
2023/01/15 09:18:43;;;;;;;0.40;0.40;;;8.90;99.90;;;;;;5010774;28;20264;-79
2023/01/15 09:21:09;;;;;;;0.47;0.47;;;9.20;99.90;;;;;;5017549;28;20614;-79
2023/01/15 09:23:34;;;;;;;0.82;0.82;;;9.60;99.90;;;;;;5007120;28;20695;-78
2023/01/15 09:26:06;;;;;;;0.45;0.45;;;9.80;99.90;;;;;;5010791;28;20275;-79
2023/01/15 09:28:33;;;;;;;1.15;1.05;;;9.90;99.90;;;;;;5009262;28;20676;-80
2023/01/15 09:30:59;;;;;;;1.02;1.02;;;9.80;99.90;;;;;;5016608;28;20651;-79
2023/01/15 09:33:25;;;;;;;2.33;2.15;;;9.60;99.90;;;;;;5021432;28;20212;-79
2023/01/15 09:35:51;;;;;;;1.10;1.10;;;9.50;99.90;;;;;;5024205;28;20184;-78
2023/01/15 09:38:19;;;;;;;1.50;0.95;;;9.30;99.90;;;;;;5010874;28;20181;-79
2023/01/15 09:40:50;;;;;;;0.68;0.68;;;9.20;99.90;;;;;;5028503;28;20662;-79
2023/01/15 09:44:10;;;;;;;0.60;0.60;;;9.10;99.90;;;;;;5026898;28;20204;-79
2023/01/15 09:47:13;;;;;;;0.80;0.80;;;8.90;99.90;;;;;;5034863;28;20184;-80
2023/01/15 09:50:08;;;;;;;0.40;0.40;;;8.90;99.90;;;;;;5018412;28;20604;-79
2023/01/15 09:53:19;;;;;;;0.20;0.20;;;8.80;99.90;;;;;;5012541;28;20217;-79
2023/01/15 09:55:47;;;;;;;0.20;0.20;;;8.80;99.90;;;;;;5024497;28;20192;-79
2023/01/15 09:58:15;;;;;;;0.22;0.22;;;8.80;99.90;;;;;;5019306;28;20181;-79
2023/01/15 10:00:45;;;;;;;0.50;0.50;;;8.80;99.90;;;;;;5007277;28;20182;-78
2023/01/15 10:03:24;;;;;;;0.35;0.35;;;8.80;99.90;;;;;;5016957;28;20212;-78
2023/01/15 10:05:54;;;;;;;0.57;0.57;;;8.80;99.90;;;;;;5015754;28;20192;-76
2023/01/15 10:08:32;;;;;;;0.40;0.40;;;8.80;99.90;;;;;;5000257;28;20567;-76
2023/01/15 10:11:10;;;;;;;0.17;0.17;;;8.80;99.90;;;;;;5013100;28;20185;-77
2023/01/15 10:13:43;;;;;;;0.20;0.20;;;8.70;99.90;;;;;;5013288;28;20239;-78
2023/01/15 10:16:11;;;;;;;0.20;0.20;;;8.70;99.90;;;;;;5001172;28;20656;-77
2023/01/15 10:18:41;;;;;;;0.20;0.20;;;8.60;99.90;;;;;;5019339;28;20189;-75
2023/01/15 10:21:25;;;;;;;0.38;0.22;;;8.60;99.90;;;;;;5018598;28;20666;-76
2023/01/15 10:24:09;;;;;;;0.30;0.30;;;8.60;99.90;;;;;;5017948;28;20204;-76
2023/01/15 10:26:43;;;;;;;0.20;0.20;;;8.50;99.90;;;;;;5011380;28;20181;-77
2023/01/15 10:29:42;;;;;;;0.15;0.15;;;8.50;99.90;;;;;;5021285;28;20235;-76
2023/01/15 10:32:20;;;;;;;0.17;0.17;;;8.40;99.90;;;;;;5022814;28;20271;-76
2023/01/15 10:34:57;;;;;;;0.20;0.20;;;8.50;99.90;;;;;;5015649;28;20183;-77
2023/01/15 10:37:37;;;;;;;0.20;0.20;;;8.40;99.90;;;;;;5012074;28;20177;-77
2023/01/15 10:40:17;;;;;;;0.20;0.20;;;8.40;99.90;;;;;;5005367;28;20257;-77
2023/01/15 10:42:54;;;;;;;0.40;0.40;;;8.30;99.90;;;;;;5005516;28;20288;-76
2023/01/15 10:45:25;;;;;;;0.22;0.22;;;8.10;99.90;;;;;;5011091;28;20177;-77
2023/01/15 10:48:15;;;;;;;0.32;0.32;;;8.00;99.90;;;;;;5011569;28;20315;-76
2023/01/15 10:50:41;;;;;;;0.20;0.20;;;8.00;99.90;;;;;;5013566;28;20567;-77
2023/01/15 10:53:11;;;;;;;0.40;0.40;;;8.00;99.90;;;;;;5006717;28;20213;-77
2023/01/15 10:55:46;;;;;;;0.40;0.40;;;7.90;99.90;;;;;;5011384;28;20209;-76
2023/01/15 10:58:30;;;;;;;0.20;0.20;;;7.80;99.90;;;;;;5019904;28;20180;-76
2023/01/15 11:01:10;;;;;;;0.20;0.20;;;7.80;99.90;;;;;;5022767;28;20186;-76
2023/01/15 11:03:42;;;;;;;0.20;0.20;;;7.80;99.90;;;;;;5022629;28;20735;-76
2023/01/15 11:06:16;;;;;;;0.20;0.20;;;7.70;99.90;;;;;;5014540;28;20653;-76
2023/01/15 11:08:52;;;;;;;0.88;0.88;;;7.70;99.90;;;;;;5020417;28;20217;-76
2023/01/15 11:19:39;;;;;;;0.52;0.52;;;7.90;99.90;;;;;;5026568;28;20180;-77
2023/01/15 11:22:16;;;;;;;0.28;0.28;;;7.90;99.90;;;;;;5017848;28;20791;-76
2023/01/15 11:24:54;;;;;;;0.63;0.63;;;7.90;99.90;;;;;;5029502;28;20639;-76
2023/01/15 11:27:25;;;;;;;0.50;0.50;;;7.80;99.90;;;;;;5016412;28;20208;-76
2023/01/15 11:29:59;;;;;;;0.63;0.63;;;7.80;99.90;;;;;;5008210;28;20188;-76
2023/01/15 11:32:35;;;;;;;0.55;0.40;;;7.80;99.90;;;;;;5012110;28;20769;-76
2023/01/15 11:35:12;;;;;;;0.50;0.50;;;7.80;99.90;;;;;;5012342;28;20533;-76
2023/01/15 11:37:38;;;;;;;1.00;0.35;;;7.70;99.90;;;;;;5015962;28;20199;-76
2023/01/15 11:40:08;;;;;;;0.30;0.30;;;7.40;99.90;;;;;;5017209;28;20193;-78
2023/01/15 11:51:16;;;;;;;0.25;0.25;;;7.10;99.90;;;;;;5009726;28;20228;-76
2023/01/15 11:53:49;;;;;;;0.57;0.57;;;7.10;99.90;;;;;;5015648;28;20211;-75
2023/01/15 11:56:27;;;;;;;0.50;0.50;;;7.10;99.90;;;;;;5011143;28;20778;-75
2023/01/15 11:58:59;;;;;;;0.70;0.70;;;7.20;99.90;;;;;;5013775;28;20219;-75
2023/01/15 12:01:27;;;;;;;0.60;0.60;;;7.20;99.90;;;;;;5009931;28;20189;-74
2023/01/15 12:03:53;;;;;;;0.45;0.45;;;7.20;99.90;;;;;;5014895;28;20228;-75
2023/01/15 12:06:21;;;;;;;0.30;0.30;;;7.30;99.90;;;;;;5004562;28;20204;-74
2023/01/15 12:09:04;;;;;;;0.52;0.52;;;7.30;99.90;;;;;;5015362;28;20578;-74
2023/01/15 12:11:51;;;;;;;0.40;0.40;;;7.40;99.90;;;;;;5013074;28;20244;-75
2023/01/15 12:14:54;;;;;;;0.50;0.50;;;7.60;99.90;;;;;;5011198;28;20205;-75
2023/01/15 12:17:38;;;;;;;0.10;0.10;;;7.70;99.90;;;;;;5024776;28;20185;-75
2023/01/15 12:20:22;;;;;;;1.08;0.40;;;7.80;99.90;;;;;;5002898;28;20189;-74
2023/01/15 12:23:09;;;;;;;1.08;1.08;;;7.90;99.90;;;;;;5017084;28;20607;-74
2023/01/15 12:25:53;;;;;;;1.33;0.47;;;7.70;99.90;;;;;;5017123;28;20202;-75
2023/01/15 12:28:42;;;;;;;0.75;0.65;;;7.70;99.90;;;;;;5009747;28;20174;-75
2023/01/15 12:31:15;;;;;;;0.50;0.50;;;7.60;99.90;;;;;;5009327;28;20177;-75
2023/01/15 12:33:51;;;;;;;0.68;0.68;;;7.60;99.90;;;;;;5009759;28;20217;-76
2023/01/15 12:36:28;;;;;;;0.70;0.70;;;7.60;99.90;;;;;;5015378;28;20257;-76
2023/01/15 12:39:06;;;;;;;0.40;0.40;;;7.70;99.90;;;;;;5010366;28;20282;-75
2023/01/15 12:47:24;;;;;;;0.50;0.50;;;7.70;99.90;;;;;;5017774;28;20234;-76
2023/01/15 12:50:16;;;;;;;0.50;0.50;;;7.70;99.90;;;;;;5015583;28;20647;-75
2023/01/15 12:52:45;;;;;;;0.30;0.30;;;7.70;99.90;;;;;;5024688;28;20231;-76
2023/01/15 12:55:25;;;;;;;0.30;0.30;;;7.50;99.90;;;;;;5014712;28;20189;-76
2023/01/15 12:57:55;;;;;;;0.55;0.55;;;7.30;99.90;;;;;;5005989;28;20185;-76
2023/01/15 13:00:27;;;;;;;0.57;0.57;;;7.20;99.90;;;;;;5013596;28;20537;-75
2023/01/15 13:03:19;;;;;;;0.40;0.40;;;7.20;99.90;;;;;;5011787;28;20243;-75
2023/01/15 13:06:03;;;;;;;0.52;0.30;;;7.20;99.90;;;;;;5010735;28;20737;-75
2023/01/15 13:08:59;;;;;;;0.43;0.43;;;7.10;99.90;;;;;;5014732;28;20178;-75
2023/01/15 13:11:25;;;;;;;0.68;0.68;;;7.10;99.90;;;;;;5011253;28;20200;-75
2023/01/15 13:13:57;;;;;;;0.30;0.30;;;7.20;99.90;;;;;;5012617;28;20619;-75
2023/01/15 13:16:45;;;;;;;0.70;0.70;;;7.20;99.90;;;;;;5003961;28;20189;-76
2023/01/15 13:19:32;;;;;;;0.30;0.30;;;7.20;99.90;;;;;;5013839;28;20676;-76
2023/01/15 13:22:06;;;;;;;0.40;0.40;;;7.30;99.90;;;;;;5007641;28;20209;-76
2023/01/15 13:24:40;;;;;;;0.35;0.35;;;7.40;99.90;;;;;;5002787;28;20180;-76
2023/01/15 13:27:20;;;;;;;0.32;0.32;;;7.40;99.90;;;;;;5009071;28;20568;-76
2023/01/15 13:30:05;;;;;;;0.47;0.47;;;7.30;99.90;;;;;;5010528;28;20274;-75
2023/01/15 13:32:41;;;;;;;0.32;0.32;;;7.20;99.90;;;;;;5014375;28;20254;-75
2023/01/15 13:35:19;;;;;;;0.55;0.55;;;7.10;99.90;;;;;;5006392;28;20876;-73
2023/01/15 13:37:49;;;;;;;0.40;0.40;;;7.20;99.90;;;;;;5012171;28;20275;-73
2023/01/15 13:40:49;;;;;;;0.50;0.50;;;7.20;99.90;;;;;;5031535;28;20191;-73
2023/01/15 13:43:40;;;;;;;0.30;0.30;;;7.10;99.90;;;;;;5015975;28;20205;-72
2023/01/15 13:46:10;;;;;;;0.40;0.40;;;6.90;99.90;;;;;;5007554;28;20177;-76
2023/01/15 13:48:42;;;;;;;0.50;0.50;;;6.90;99.90;;;;;;5019236;28;20232;-77
2023/01/15 13:51:20;;;;;;;0.30;0.30;;;6.90;99.90;;;;;;5014429;28;20601;-75
2023/01/15 13:53:47;;;;;;;0.50;0.50;;;6.80;99.90;;;;;;5023116;28;20247;-76
2023/01/15 13:56:26;;;;;;;0.55;0.55;;;6.70;99.90;;;;;;5009773;28;20238;-76
2023/01/15 13:58:57;;;;;;;0.40;0.40;;;6.60;99.90;;;;;;5018325;28;20271;-75
2023/01/15 14:01:33;;;;;;;0.80;0.80;;;6.60;99.90;;;;;;5013485;28;20295;-76
2023/01/15 14:04:11;;;;;;;0.60;0.60;;;6.70;99.90;;;;;;4998227;28;20198;-75
2023/01/15 14:06:45;;;;;;;0.50;0.50;;;6.80;99.90;;;;;;5007654;28;20212;-75